sensor_id;sensor_type;location;lat;lon;timestamp;pressure;altitude;pressure_sealevel;temperature;humidity
66021;BME280;52789;59.980;30.346;2023-03-26T00:00:52;99628.94;;;2.42;100.00
66021;BME280;52789;59.980;30.346;2023-03-26T00:03:19;99633.22;;;2.43;100.00
66021;BME280;52789;59.980;30.346;2023-03-26T00:05:46;99634.44;;;2.48;100.00
66021;BME280;52789;59.980;30.346;2023-03-26T00:08:12;99642.06;;;2.61;100.00
66021;BME280;52789;59.980;30.346;2023-03-26T00:10:38;99639.16;;;2.74;100.00
66021;BME280;52789;59.980;30.346;2023-03-26T00:13:04;99617.84;;;2.77;100.00
66021;BME280;52789;59.980;30.346;2023-03-26T00:15:30;99612.72;;;2.75;100.00
66021;BME280;52789;59.980;30.346;2023-03-26T00:17:56;99616.31;;;2.74;100.00
66021;BME280;52789;59.980;30.346;2023-03-26T00:20:22;99618.53;;;2.79;100.00
66021;BME280;52789;59.980;30.346;2023-03-26T00:22:47;99602.72;;;2.89;100.00
66021;BME280;52789;59.980;30.346;2023-03-26T00:25:12;99611.31;;;2.91;100.00
66021;BME280;52789;59.980;30.346;2023-03-26T00:27:38;99600.09;;;2.89;100.00
66021;BME280;52789;59.980;30.346;2023-03-26T00:30:04;99605.34;;;2.89;100.00
66021;BME280;52789;59.980;30.346;2023-03-26T00:32:30;99592.91;;;2.91;100.00
66021;BME280;52789;59.980;30.346;2023-03-26T00:34:58;99594.72;;;2.90;100.00
66021;BME280;52789;59.980;30.346;2023-03-26T00:37:26;99593.31;;;2.86;100.00
66021;BME280;52789;59.980;30.346;2023-03-26T00:39:54;99600.81;;;2.81;100.00
66021;BME280;52789;59.980;30.346;2023-03-26T00:42:27;99614.78;;;2.82;100.00
66021;BME280;52789;59.980;30.346;2023-03-26T00:44:52;99619.91;;;2.93;100.00
66021;BME280;52789;59.980;30.346;2023-03-26T00:47:22;99615.03;;;2.98;100.00
66021;BME280;52789;59.980;30.346;2023-03-26T00:49:47;99612.41;;;2.98;100.00
66021;BME280;52789;59.980;30.346;2023-03-26T00:52:13;99622.34;;;3.04;100.00
66021;BME280;52789;59.980;30.346;2023-03-26T00:54:43;99626.47;;;3.16;100.00
66021;BME280;52789;59.980;30.346;2023-03-26T00:57:09;99632.84;;;3.23;100.00
66021;BME280;52789;59.980;30.346;2023-03-26T00:59:36;99633.38;;;3.27;100.00
66021;BME280;52789;59.980;30.346;2023-03-26T01:02:01;99632.25;;;3.29;100.00
66021;BME280;52789;59.980;30.346;2023-03-26T01:04:29;99622.03;;;3.17;100.00
66021;BME280;52789;59.980;30.346;2023-03-26T01:06:58;99625.28;;;3.01;100.00
66021;BME280;52789;59.980;30.346;2023-03-26T01:09:28;99615.31;;;2.95;100.00
66021;BME280;52789;59.980;30.346;2023-03-26T01:11:57;99605.50;;;2.87;100.00
66021;BME280;52789;59.980;30.346;2023-03-26T01:14:24;99607.03;;;2.80;100.00
66021;BME280;52789;59.980;30.346;2023-03-26T01:16:51;99606.63;;;2.75;100.00
66021;BME280;52789;59.980;30.346;2023-03-26T01:19:20;99610.50;;;2.71;100.00
66021;BME280;52789;59.980;30.346;2023-03-26T01:21:48;99621.72;;;2.73;100.00
66021;BME280;52789;59.980;30.346;2023-03-26T01:24:13;99619.34;;;2.79;100.00
66021;BME280;52789;59.980;30.346;2023-03-26T01:29:09;99612.41;;;2.98;100.00
66021;BME280;52789;59.980;30.346;2023-03-26T01:32:37;99602.56;;;3.00;100.00
66021;BME280;52789;59.980;30.346;2023-03-26T01:37:23;99594.16;;;2.77;100.00
66021;BME280;52789;59.980;30.346;2023-03-26T01:39:55;99586.03;;;2.70;100.00
66021;BME280;52789;59.980;30.346;2023-03-26T01:43:04;99594.59;;;2.72;100.00
66021;BME280;52789;59.980;30.346;2023-03-26T01:45:12;99589.16;;;2.84;100.00
66021;BME280;52789;59.980;30.346;2023-03-26T01:47:39;99574.50;;;2.81;100.00
66021;BME280;52789;59.980;30.346;2023-03-26T01:50:06;99574.53;;;2.71;100.00
66021;BME280;52789;59.980;30.346;2023-03-26T01:52:32;99565.72;;;2.63;100.00
66021;BME280;52789;59.980;30.346;2023-03-26T01:54:57;99568.47;;;2.61;100.00
66021;BME280;52789;59.980;30.346;2023-03-26T02:00:06;99554.63;;;2.69;100.00
66021;BME280;52789;59.980;30.346;2023-03-26T02:07:36;99575.59;;;2.98;100.00
66021;BME280;52789;59.980;30.346;2023-03-26T02:10:07;99580.69;;;2.99;100.00
66021;BME280;52789;59.980;30.346;2023-03-26T02:12:34;99576.53;;;3.06;100.00
66021;BME280;52789;59.980;30.346;2023-03-26T02:15:00;99574.44;;;3.10;100.00
66021;BME280;52789;59.980;30.346;2023-03-26T02:17:26;99583.81;;;3.13;100.00
66021;BME280;52789;59.980;30.346;2023-03-26T02:19:54;99579.19;;;2.97;100.00
66021;BME280;52789;59.980;30.346;2023-03-26T02:22:20;99578.09;;;2.90;100.00
66021;BME280;52789;59.980;30.346;2023-03-26T02:24:46;99576.31;;;2.90;100.00
66021;BME280;52789;59.980;30.346;2023-03-26T02:27:12;99577.13;;;2.91;100.00
66021;BME280;52789;59.980;30.346;2023-03-26T02:29:37;99585.81;;;3.01;100.00
66021;BME280;52789;59.980;30.346;2023-03-26T02:32:07;99574.72;;;3.07;100.00
66021;BME280;52789;59.980;30.346;2023-03-26T02:34:36;99577.78;;;3.02;100.00
66021;BME280;52789;59.980;30.346;2023-03-26T02:37:01;99577.78;;;3.02;100.00
66021;BME280;52789;59.980;30.346;2023-03-26T02:39:27;99573.06;;;3.06;100.00
66021;BME280;52789;59.980;30.346;2023-03-26T02:41:52;99572.22;;;3.05;100.00
66021;BME280;52789;59.980;30.346;2023-03-26T02:44:17;99574.13;;;3.13;100.00
66021;BME280;52789;59.980;30.346;2023-03-26T02:46:43;99573.00;;;3.16;100.00
66021;BME280;52789;59.980;30.346;2023-03-26T02:49:08;99581.19;;;3.22;100.00
66021;BME280;52789;59.980;30.346;2023-03-26T02:51:33;99590.16;;;3.29;100.00
66021;BME280;52789;59.980;30.346;2023-03-26T02:54:00;99584.31;;;3.35;100.00
66021;BME280;52789;59.980;30.346;2023-03-26T02:56:26;99590.84;;;3.31;100.00
66021;BME280;52789;59.980;30.346;2023-03-26T02:58:51;99580.06;;;3.25;100.00
66021;BME280;52789;59.980;30.346;2023-03-26T03:01:16;99572.88;;;3.17;100.00
66021;BME280;52789;59.980;30.346;2023-03-26T03:03:42;99578.03;;;3.09;100.00
66021;BME280;52789;59.980;30.346;2023-03-26T03:06:07;99574.03;;;3.05;100.00
66021;BME280;52789;59.980;30.346;2023-03-26T03:08:33;99563.81;;;3.02;100.00
66021;BME280;52789;59.980;30.346;2023-03-26T03:10:59;99564.47;;;3.04;100.00
66021;BME280;52789;59.980;30.346;2023-03-26T03:13:25;99568.88;;;3.13;100.00
66021;BME280;52789;59.980;30.346;2023-03-26T03:15:50;99562.34;;;3.17;100.00
66021;BME280;52789;59.980;30.346;2023-03-26T03:18:16;99570.81;;;3.21;100.00
66021;BME280;52789;59.980;30.346;2023-03-26T03:20:41;99556.91;;;3.28;100.00
66021;BME280;52789;59.980;30.346;2023-03-26T03:23:07;99563.09;;;3.37;100.00
66021;BME280;52789;59.980;30.346;2023-03-26T03:25:33;99559.34;;;3.39;100.00
66021;BME280;52789;59.980;30.346;2023-03-26T03:27:58;99559.72;;;3.45;100.00
66021;BME280;52789;59.980;30.346;2023-03-26T03:30:23;99561.28;;;3.47;100.00
66021;BME280;52789;59.980;30.346;2023-03-26T03:32:49;99557.09;;;3.45;100.00
66021;BME280;52789;59.980;30.346;2023-03-26T03:35:15;99563.50;;;3.42;100.00
66021;BME280;52789;59.980;30.346;2023-03-26T03:37:41;99561.00;;;3.40;100.00
66021;BME280;52789;59.980;30.346;2023-03-26T03:40:07;99555.59;;;3.42;100.00
66021;BME280;52789;59.980;30.346;2023-03-26T03:42:34;99555.75;;;3.40;100.00
66021;BME280;52789;59.980;30.346;2023-03-26T03:45:00;99560.03;;;3.41;100.00
66021;BME280;52789;59.980;30.346;2023-03-26T03:47:26;99563.34;;;3.43;100.00
66021;BME280;52789;59.980;30.346;2023-03-26T03:49:51;99558.91;;;3.44;100.00
66021;BME280;52789;59.980;30.346;2023-03-26T03:52:17;99562.09;;;3.48;100.00
66021;BME280;52789;59.980;30.346;2023-03-26T03:54:44;99558.19;;;3.52;100.00
66021;BME280;52789;59.980;30.346;2023-03-26T03:57:09;99556.91;;;3.56;100.00
66021;BME280;52789;59.980;30.346;2023-03-26T03:59:35;99564.91;;;3.64;100.00
66021;BME280;52789;59.980;30.346;2023-03-26T04:02:00;99558.38;;;3.68;100.00
66021;BME280;52789;59.980;30.346;2023-03-26T04:04:25;99554.75;;;3.69;100.00
66021;BME280;52789;59.980;30.346;2023-03-26T04:06:51;99560.69;;;3.71;100.00
66021;BME280;52789;59.980;30.346;2023-03-26T04:09:16;99560.41;;;3.74;100.00
66021;BME280;52789;59.980;30.346;2023-03-26T04:11:42;99566.38;;;3.76;100.00
66021;BME280;52789;59.980;30.346;2023-03-26T04:14:07;99560.81;;;3.79;100.00
66021;BME280;52789;59.980;30.346;2023-03-26T04:16:32;99559.16;;;3.78;100.00
66021;BME280;52789;59.980;30.346;2023-03-26T04:18:58;99560.97;;;3.78;100.00
66021;BME280;52789;59.980;30.346;2023-03-26T04:21:26;99562.06;;;3.75;100.00
66021;BME280;52789;59.980;30.346;2023-03-26T04:23:54;99551.16;;;3.70;100.00
66021;BME280;52789;59.980;30.346;2023-03-26T04:26:19;99558.41;;;3.86;100.00
66021;BME280;52789;59.980;30.346;2023-03-26T04:28:49;99560.97;;;3.95;100.00
66021;BME280;52789;59.980;30.346;2023-03-26T04:31:18;99560.59;;;4.08;100.00
66021;BME280;52789;59.980;30.346;2023-03-26T04:33:49;99559.16;;;4.14;100.00
66021;BME280;52789;59.980;30.346;2023-03-26T04:36:18;99565.41;;;4.13;100.00
66021;BME280;52789;59.980;30.346;2023-03-26T04:38:46;99566.69;;;4.09;100.00
66021;BME280;52789;59.980;30.346;2023-03-26T04:41:16;99559.63;;;4.09;100.00
66021;BME280;52789;59.980;30.346;2023-03-26T04:43:41;99568.06;;;4.13;100.00
66021;BME280;52789;59.980;30.346;2023-03-26T04:46:11;99567.44;;;4.19;100.00
66021;BME280;52789;59.980;30.346;2023-03-26T04:48:37;99569.47;;;4.25;100.00
66021;BME280;52789;59.980;30.346;2023-03-26T04:51:03;99574.28;;;4.29;100.00
66021;BME280;52789;59.980;30.346;2023-03-26T04:53:31;99571.50;;;4.31;100.00
66021;BME280;52789;59.980;30.346;2023-03-26T04:55:58;99567.16;;;4.22;100.00
66021;BME280;52789;59.980;30.346;2023-03-26T04:58:25;99563.63;;;4.13;100.00
66021;BME280;52789;59.980;30.346;2023-03-26T05:00:57;99564.94;;;3.99;100.00
66021;BME280;52789;59.980;30.346;2023-03-26T05:03:25;99562.91;;;3.93;100.00
66021;BME280;52789;59.980;30.346;2023-03-26T05:05:55;99559.59;;;3.91;100.00
66021;BME280;52789;59.980;30.346;2023-03-26T05:08:20;99559.31;;;3.94;100.00
66021;BME280;52789;59.980;30.346;2023-03-26T05:10:46;99556.59;;;4.04;100.00
66021;BME280;52789;59.980;30.346;2023-03-26T05:13:11;99561.44;;;4.09;100.00
66021;BME280;52789;59.980;30.346;2023-03-26T05:15:36;99556.69;;;4.12;100.00
66021;BME280;52789;59.980;30.346;2023-03-26T05:18:01;99561.66;;;4.15;100.00
66021;BME280;52789;59.980;30.346;2023-03-26T05:20:27;99564.97;;;4.17;100.00
66021;BME280;52789;59.980;30.346;2023-03-26T05:22:54;99567.44;;;4.19;100.00
66021;BME280;52789;59.980;30.346;2023-03-26T05:25:20;99567.44;;;4.19;100.00
66021;BME280;52789;59.980;30.346;2023-03-26T05:27:46;99564.81;;;4.19;100.00
66021;BME280;52789;59.980;30.346;2023-03-26T05:30:15;99564.97;;;4.17;100.00
66021;BME280;52789;59.980;30.346;2023-03-26T05:32:41;99565.19;;;4.24;100.00
66021;BME280;52789;59.980;30.346;2023-03-26T05:35:07;99571.81;;;4.28;100.00
66021;BME280;52789;59.980;30.346;2023-03-26T05:37:33;99576.09;;;4.29;100.00
66021;BME280;52789;59.980;30.346;2023-03-26T05:39:58;99573.59;;;4.27;100.00
66021;BME280;52789;59.980;30.346;2023-03-26T05:42:24;99575.50;;;4.35;100.00
66021;BME280;52789;59.980;30.346;2023-03-26T05:44:52;99574.59;;;4.44;100.00
66021;BME280;52789;59.980;30.346;2023-03-26T05:47:18;99571.25;;;4.60;100.00
66021;BME280;52789;59.980;30.346;2023-03-26T05:49:43;99581.72;;;4.70;100.00
66021;BME280;52789;59.980;30.346;2023-03-26T05:52:08;99581.25;;;4.74;100.00
66021;BME280;52789;59.980;30.346;2023-03-26T05:54:34;99581.72;;;4.70;100.00
66021;BME280;52789;59.980;30.346;2023-03-26T05:57:00;99569.34;;;4.70;100.00
66021;BME280;52789;59.980;30.346;2023-03-26T05:59:25;99573.44;;;4.64;100.00
66021;BME280;52789;59.980;30.346;2023-03-26T06:01:50;99571.09;;;4.61;100.00
66021;BME280;52789;59.980;30.346;2023-03-26T06:04:18;99570.72;;;4.56;100.00
66021;BME280;52789;59.980;30.346;2023-03-26T06:06:44;99577.44;;;4.51;100.00
66021;BME280;52789;59.980;30.346;2023-03-26T06:09:09;99573.91;;;4.42;100.00
66021;BME280;52789;59.980;30.346;2023-03-26T06:11:37;99576.25;;;4.45;100.00
66021;BME280;52789;59.980;30.346;2023-03-26T06:14:03;99572.31;;;4.49;100.00
66021;BME280;52789;59.980;30.346;2023-03-26T06:16:28;99577.50;;;4.59;100.00
66021;BME280;52789;59.980;30.346;2023-03-26T06:18:54;99588.81;;;4.69;100.00
66021;BME280;52789;59.980;30.346;2023-03-26T06:21:19;99586.16;;;4.69;100.00
66021;BME280;52789;59.980;30.346;2023-03-26T06:23:44;99585.69;;;4.74;100.00
66021;BME280;52789;59.980;30.346;2023-03-26T06:26:13;99584.97;;;4.63;100.00
66021;BME280;52789;59.980;30.346;2023-03-26T06:28:38;99583.84;;;4.48;100.00
66021;BME280;52789;59.980;30.346;2023-03-26T06:31:03;99588.69;;;4.35;100.00
66021;BME280;52789;59.980;30.346;2023-03-26T06:33:29;99585.91;;;4.19;100.00
66021;BME280;52789;59.980;30.346;2023-03-26T06:36:00;99592.78;;;4.02;100.00
66021;BME280;52789;59.980;30.346;2023-03-26T06:38:25;99603.03;;;3.87;100.00
66021;BME280;52789;59.980;30.346;2023-03-26T06:40:50;99601.97;;;3.80;100.00
66021;BME280;52789;59.980;30.346;2023-03-26T06:43:16;99597.97;;;3.76;100.00
66021;BME280;52789;59.980;30.346;2023-03-26T06:45:41;99594.47;;;3.76;100.00
66021;BME280;52789;59.980;30.346;2023-03-26T06:48:06;99591.91;;;3.66;100.00
66021;BME280;52789;59.980;30.346;2023-03-26T06:50:32;99585.44;;;3.60;100.00
66021;BME280;52789;59.980;30.346;2023-03-26T06:52:57;99591.16;;;3.56;100.00
66021;BME280;52789;59.980;30.346;2023-03-26T06:55:23;99589.88;;;3.60;100.00
66021;BME280;52789;59.980;30.346;2023-03-26T06:57:51;99597.78;;;3.60;100.00
66021;BME280;52789;59.980;30.346;2023-03-26T07:00:16;99603.03;;;3.60;100.00
66021;BME280;52789;59.980;30.346;2023-03-26T07:02:42;99603.34;;;3.57;100.00
66021;BME280;52789;59.980;30.346;2023-03-26T07:05:07;99607.31;;;3.33;100.00
66021;BME280;52789;59.980;30.346;2023-03-26T07:07:33;99596.84;;;3.14;100.00
66021;BME280;52789;59.980;30.346;2023-03-26T07:09:58;99603.94;;;3.04;100.00
66021;BME280;52789;59.980;30.346;2023-03-26T07:12:24;99608.91;;;3.07;100.00
66021;BME280;52789;59.980;30.346;2023-03-26T07:14:49;99611.53;;;3.07;100.00
66021;BME280;52789;59.980;30.346;2023-03-26T07:17:15;99609.88;;;3.06;100.00
66021;BME280;52789;59.980;30.346;2023-03-26T07:19:40;99612.66;;;3.04;100.00
66021;BME280;52789;59.980;30.346;2023-03-26T07:22:05;99611.53;;;3.07;100.00
66021;BME280;52789;59.980;30.346;2023-03-26T07:24:31;99613.19;;;3.08;100.00
66021;BME280;52789;59.980;30.346;2023-03-26T07:27:05;99616.25;;;3.03;100.00
66021;BME280;52789;59.980;30.346;2023-03-26T07:45:41;99621.16;;;3.35;100.00
66021;BME280;52789;59.980;30.346;2023-03-26T07:48:17;99619.78;;;3.31;100.00
66021;BME280;52789;59.980;30.346;2023-03-26T07:50:44;99618.13;;;3.30;100.00
66021;BME280;52789;59.980;30.346;2023-03-26T07:53:10;99627.97;;;3.28;100.00
66021;BME280;52789;59.980;30.346;2023-03-26T07:55:37;99620.50;;;3.24;100.00
66021;BME280;52789;59.980;30.346;2023-03-26T07:58:23;99622.84;;;3.17;100.00
66021;BME280;52789;59.980;30.346;2023-03-26T08:04:04;99617.34;;;3.20;100.00
66021;BME280;52789;59.980;30.346;2023-03-26T08:06:34;99623.28;;;3.22;100.00
66021;BME280;52789;59.980;30.346;2023-03-26T08:09:18;99626.59;;;3.24;100.00
66021;BME280;52789;59.980;30.346;2023-03-26T08:11:52;99627.88;;;3.20;100.00
66021;BME280;52789;59.980;30.346;2023-03-26T08:16:53;99619.69;;;3.23;100.00
66021;BME280;52789;59.980;30.346;2023-03-26T08:21:50;99619.78;;;3.31;100.00
66021;BME280;52789;59.980;30.346;2023-03-26T08:24:32;99626.41;;;3.35;100.00
66021;BME280;52789;59.980;30.346;2023-03-26T08:27:11;99629.44;;;3.40;100.00
66021;BME280;52789;59.980;30.346;2023-03-26T08:29:46;99642.44;;;3.42;100.00
66021;BME280;52789;59.980;30.346;2023-03-26T08:32:17;99633.34;;;3.36;100.00
66021;BME280;52789;59.980;30.346;2023-03-26T08:34:43;99649.69;;;3.30;100.00
66021;BME280;52789;59.980;30.346;2023-03-26T08:37:09;99642.78;;;3.29;100.00
66021;BME280;52789;59.980;30.346;2023-03-26T08:39:35;99645.81;;;3.34;100.00
66021;BME280;52789;59.980;30.346;2023-03-26T08:42:07;99652.91;;;3.24;100.00
66021;BME280;52789;59.980;30.346;2023-03-26T09:00:20;99654.09;;;3.39;100.00
66021;BME280;52789;59.980;30.346;2023-03-26T09:10:32;99655.50;;;3.34;100.00
66021;BME280;52789;59.980;30.346;2023-03-26T09:31:12;99642.31;;;3.43;100.00
66021;BME280;52789;59.980;30.346;2023-03-26T09:41:16;99651.16;;;3.42;100.00
66021;BME280;52789;59.980;30.346;2023-03-26T09:46:20;99649.66;;;3.50;100.00
66021;BME280;52789;59.980;30.346;2023-03-26T09:53:59;99662.97;;;3.38;100.00
66021;BME280;52789;59.980;30.346;2023-03-26T09:59:32;99656.03;;;3.37;100.00
66021;BME280;52789;59.980;30.346;2023-03-26T10:22:42;99664.84;;;3.56;100.00
66021;BME280;52789;59.980;30.346;2023-03-26T10:40:50;99660.06;;;3.79;100.00
66021;BME280;52789;59.980;30.346;2023-03-26T10:48:18;99666.44;;;3.76;100.00
66021;BME280;52789;59.980;30.346;2023-03-26T10:55:59;99678.81;;;3.93;100.00
66021;BME280;52789;59.980;30.346;2023-03-26T10:58:26;99674.69;;;3.91;100.00
66021;BME280;52789;59.980;30.346;2023-03-26T11:01:00;99680.47;;;3.94;100.00
66021;BME280;52789;59.980;30.346;2023-03-26T11:26:57;99692.63;;;3.31;100.00
66021;BME280;52789;59.980;30.346;2023-03-26T11:32:19;99697.44;;;3.45;100.00
66021;BME280;52789;59.980;30.346;2023-03-26T11:37:16;99686.22;;;3.53;100.00
66021;BME280;52789;59.980;30.346;2023-03-26T11:39:52;99680.38;;;3.59;100.00
66021;BME280;52789;59.980;30.346;2023-03-26T11:42:21;99682.13;;;3.68;100.00
66021;BME280;52789;59.980;30.346;2023-03-26T11:44:50;99686.41;;;3.69;100.00
66021;BME280;52789;59.980;30.346;2023-03-26T11:47:17;99680.75;;;3.64;100.00
66021;BME280;52789;59.980;30.346;2023-03-26T11:49:44;99680.91;;;3.62;100.00
66021;BME280;52789;59.980;30.346;2023-03-26T11:52:11;99680.47;;;3.67;100.00
66021;BME280;52789;59.980;30.346;2023-03-26T11:54:39;99681.16;;;3.69;100.00
66021;BME280;52789;59.980;30.346;2023-03-26T11:57:06;99683.31;;;3.83;100.00
66021;BME280;52789;59.980;30.346;2023-03-26T11:59:39;99683.03;;;3.86;100.00
66021;BME280;52789;59.980;30.346;2023-03-26T12:04:39;99682.81;;;3.70;100.00
66021;BME280;52789;59.980;30.346;2023-03-26T12:09:33;99684.84;;;3.49;100.00
66021;BME280;52789;59.980;30.346;2023-03-26T12:11:59;99686.66;;;3.48;100.00
66021;BME280;52789;59.980;30.346;2023-03-26T12:14:27;99684.00;;;3.48;100.00
66021;BME280;52789;59.980;30.346;2023-03-26T12:19:25;99686.91;;;3.45;100.00
66021;BME280;52789;59.980;30.346;2023-03-26T12:21:53;99693.72;;;3.48;100.00
66021;BME280;52789;59.980;30.346;2023-03-26T12:24:26;99685.81;;;3.48;100.00
66021;BME280;52789;59.980;30.346;2023-03-26T12:26:57;99683.56;;;3.53;100.00
66021;BME280;52789;59.980;30.346;2023-03-26T12:29:26;99697.28;;;3.47;100.00
66021;BME280;52789;59.980;30.346;2023-03-26T12:31:55;99695.13;;;3.32;100.00
66021;BME280;52789;59.980;30.346;2023-03-26T12:34:22;99700.28;;;3.24;100.00
66021;BME280;52789;59.980;30.346;2023-03-26T12:36:54;99691.97;;;3.19;100.00
66021;BME280;52789;59.980;30.346;2023-03-26T12:39:36;99692.22;;;3.16;100.00
66021;BME280;52789;59.980;30.346;2023-03-26T12:42:03;99686.84;;;3.08;100.00
66021;BME280;52789;59.980;30.346;2023-03-26T12:44:35;99686.84;;;3.08;100.00
66021;BME280;52789;59.980;30.346;2023-03-26T12:47:10;99691.69;;;3.13;100.00
66021;BME280;52789;59.980;30.346;2023-03-26T12:49:38;99685.06;;;3.18;100.00
66021;BME280;52789;59.980;30.346;2023-03-26T12:54:56;99685.88;;;3.09;100.00
66021;BME280;52789;59.980;30.346;2023-03-26T12:57:31;99687.13;;;3.05;100.00
66021;BME280;52789;59.980;30.346;2023-03-26T13:00:13;99687.00;;;3.06;100.00
66021;BME280;52789;59.980;30.346;2023-03-26T13:02:58;99682.19;;;2.92;100.00
66021;BME280;52789;59.980;30.346;2023-03-26T13:05:38;99689.78;;;2.86;100.00
66021;BME280;52789;59.980;30.346;2023-03-26T13:14:06;99687.72;;;2.79;100.00
66021;BME280;52789;59.980;30.346;2023-03-26T13:23:57;99687.84;;;2.88;100.00
66021;BME280;52789;59.980;30.346;2023-03-26T13:29:10;99683.84;;;2.84;100.00
66021;BME280;52789;59.980;30.346;2023-03-26T13:34:35;99689.38;;;2.90;100.00
66021;BME280;52789;59.980;30.346;2023-03-26T13:37:17;99686.19;;;2.96;100.00
66021;BME280;52789;59.980;30.346;2023-03-26T13:42:37;99693.25;;;2.86;100.00
66021;BME280;52789;59.980;30.346;2023-03-26T13:47:49;99686.47;;;2.64;100.00
66021;BME280;52789;59.980;30.346;2023-03-26T13:50:28;99689.38;;;2.61;100.00
66021;BME280;52789;59.980;30.346;2023-03-26T13:52:57;99681.06;;;2.56;100.00
66021;BME280;52789;59.980;30.346;2023-03-26T13:58:18;99685.94;;;2.70;100.00
66021;BME280;52789;59.980;30.346;2023-03-26T14:00:50;99684.53;;;2.76;100.00
66021;BME280;52789;59.980;30.346;2023-03-26T14:03:33;99693.81;;;2.70;100.00
66021;BME280;52789;59.980;30.346;2023-03-26T14:06:05;99695.47;;;2.71;100.00
66021;BME280;52789;59.980;30.346;2023-03-26T14:08:37;99695.34;;;2.63;100.00
66021;BME280;52789;59.980;30.346;2023-03-26T14:11:14;99704.31;;;2.51;100.00
66021;BME280;52789;59.980;30.346;2023-03-26T14:13:42;99693.94;;;2.49;100.00
66021;BME280;52789;59.980;30.346;2023-03-26T14:21:27;99694.91;;;2.58;100.00
66021;BME280;52789;59.980;30.346;2023-03-26T14:24:19;99697.13;;;2.53;100.00
66021;BME280;52789;59.980;30.346;2023-03-26T14:32:31;99696.66;;;2.29;100.00
66021;BME280;52789;59.980;30.346;2023-03-26T14:52:59;99679.16;;;1.89;100.00
66021;BME280;52789;59.980;30.346;2023-03-26T15:11:30;99700.97;;;1.49;100.00
66021;BME280;52789;59.980;30.346;2023-03-26T15:26:47;99698.63;;;1.46;100.00
66021;BME280;52789;59.980;30.346;2023-03-26T15:52:45;99718.31;;;1.41;100.00
66021;BME280;52789;59.980;30.346;2023-03-26T15:58:19;99721.78;;;1.00;100.00
66021;BME280;52789;59.980;30.346;2023-03-26T16:01:02;99712.50;;;0.96;100.00
66021;BME280;52789;59.980;30.346;2023-03-26T16:03:37;99727.31;;;0.85;100.00
66021;BME280;52789;59.980;30.346;2023-03-26T16:11:11;99724.50;;;0.77;100.00
66021;BME280;52789;59.980;30.346;2023-03-26T16:13:40;99720.59;;;0.72;100.00
66021;BME280;52789;59.980;30.346;2023-03-26T16:18:35;99723.97;;;0.83;100.00
66021;BME280;52789;59.980;30.346;2023-03-26T16:26:15;99720.97;;;0.67;100.00
66021;BME280;52789;59.980;30.346;2023-03-26T16:36:43;99740.41;;;0.65;100.00
66021;BME280;52789;59.980;30.346;2023-03-26T16:39:18;99738.59;;;0.65;100.00
66021;BME280;52789;59.980;30.346;2023-03-26T16:42:02;99731.25;;;0.59;100.00
66021;BME280;52789;59.980;30.346;2023-03-26T16:44:37;99741.59;;;0.60;100.00
66021;BME280;52789;59.980;30.346;2023-03-26T16:49:39;99736.72;;;0.56;100.00
66021;BME280;52789;59.980;30.346;2023-03-26T16:52:09;99741.94;;;0.56;100.00
66021;BME280;52789;59.980;30.346;2023-03-26T16:54:45;99739.81;;;0.61;100.00
66021;BME280;52789;59.980;30.346;2023-03-26T16:57:17;99751.84;;;0.52;100.00
66021;BME280;52789;59.980;30.346;2023-03-26T17:04:46;99745.81;;;0.41;100.00
66021;BME280;52789;59.980;30.346;2023-03-26T17:25:37;99749.34;;;0.51;100.00
66021;BME280;52789;59.980;30.346;2023-03-26T17:31:04;99740.50;;;0.31;100.00
66021;BME280;52789;59.980;30.346;2023-03-26T17:33:36;99744.16;;;0.28;100.00
66021;BME280;52789;59.980;30.346;2023-03-26T17:41:03;99750.22;;;0.40;100.00
66021;BME280;52789;59.980;30.346;2023-03-26T17:43:34;99749.50;;;0.38;100.00
66021;BME280;52789;59.980;30.346;2023-03-26T17:46:01;99754.41;;;0.32;100.00
66021;BME280;52789;59.980;30.346;2023-03-26T17:48:27;99764.66;;;0.23;100.00
66021;BME280;52789;59.980;30.346;2023-03-26T17:50:56;99748.47;;;0.18;100.00
66021;BME280;52789;59.980;30.346;2023-03-26T17:53:24;99746.06;;;0.26;100.00
66021;BME280;52789;59.980;30.346;2023-03-26T17:55:51;99746.31;;;0.23;100.00
66021;BME280;52789;59.980;30.346;2023-03-26T18:00:48;99745.72;;;0.20;100.00
66021;BME280;52789;59.980;30.346;2023-03-26T18:03:19;99739.06;;;0.16;100.00
66021;BME280;52789;59.980;30.346;2023-03-26T18:05:45;99745.13;;;0.16;100.00
66021;BME280;52789;59.980;30.346;2023-03-26T18:08:34;99748.59;;;0.17;100.00
66021;BME280;52789;59.980;30.346;2023-03-26T18:16:14;99743.00;;;0.21;100.00
66021;BME280;52789;59.980;30.346;2023-03-26T18:18:48;99743.44;;;0.26;100.00
66021;BME280;52789;59.980;30.346;2023-03-26T18:21:27;99749.75;;;0.24;100.00
66021;BME280;52789;59.980;30.346;2023-03-26T18:23:54;99745.84;;;0.18;100.00
66021;BME280;52789;59.980;30.346;2023-03-26T18:26:23;99748.50;;;0.07;100.00
66021;BME280;52789;59.980;30.346;2023-03-26T18:29:41;99743.00;;;-0.01;100.00
66021;BME280;52789;59.980;30.346;2023-03-26T18:31:42;99740.75;;;-0.06;100.00
66021;BME280;52789;59.980;30.346;2023-03-26T18:34:12;99749.56;;;-0.18;100.00
66021;BME280;52789;59.980;30.346;2023-03-26T18:36:38;99748.03;;;-0.20;100.00
66021;BME280;52789;59.980;30.346;2023-03-26T18:39:03;99750.28;;;-0.16;100.00
66021;BME280;52789;59.980;30.346;2023-03-26T18:43:55;99749.56;;;-0.18;100.00
66021;BME280;52789;59.980;30.346;2023-03-26T18:46:24;99749.69;;;-0.19;100.00
66021;BME280;52789;59.980;30.346;2023-03-26T18:48:51;99752.78;;;-0.14;100.00
66021;BME280;52789;59.980;30.346;2023-03-26T18:51:18;99754.09;;;-0.09;100.00
66021;BME280;52789;59.980;30.346;2023-03-26T18:53:51;99752.06;;;-0.05;100.00
66021;BME280;52789;59.980;30.346;2023-03-26T18:58:59;99746.13;;;0.04;100.00